KRKD/RKD METAR and TAF weather

Enter ICAO airport designator
Station Type Date Time Source
KRKD METAR 2021/01/20 22:56 UTC NOAA

KRKD 202256Z AUTO 30004KT 10SM FEW036 BKN047 BKN055 M02/M09 A2986 RMK AO2 SLP113 T10221089 FZRANO


Station Type Date Time Source
KRKD Decoded METAR 2021/01/20 22:56 UTC NOAA

Rockland, Knox County Regional Airport, ME, United States (KRKD) 44-04N 069-06W
Jan 20, 2021 - 05:56 PM EST / 2021.01.20 2256 UTC
Wind: from the WNW (300 degrees) at 5 MPH (4 KT):0
Visibility: 10 mile(s):0
Sky conditions: mostly cloudy
Temperature: 28.0 F (-2.2 C)
Windchill: 23 F (-5 C):1
Dew Point: 16.0 F (-8.9 C)
Relative Humidity: 60%
Pressure (altimeter): 29.86 in. Hg (1011 hPa)
ob: KRKD 202256Z AUTO 30004KT 10SM FEW036 BKN047 BKN055 M02/M09 A2986 RMK AO2 SLP113 T10221089 FZRANO
cycle: 23

Station Type Date Time Source
KRKD TAF 2021/01/20 18:33 UTC NOAA

TAF KRKD 201731Z 2018/2118 01007KT P6SM SCT090
FM210000 32004KT P6SM SCT250
FM211200 30003KT P6SM BKN090

Example: see airport list